Alameda, California
Current Conditions -  °F | °C
As of 2:53 PM on Tuesday 25 Nov 2014 (Local Time) from KOAK Reporting Station
Scattered Clouds Scattered Clouds  
Wind Chill: 62°   Ceiling: Unl
Heat Index: 62°   Visibility: 10mi
Dew Point: 47°   Wind: 5mph
Humidity: 59%   Direction: 240°WSW
Pressure: 30.37"   Gusts: NA
Location:  37.77°N, 122.24°W
Report Text: KOAK 252253Z 24004KT 10SM SCT200 17/09 A3037 RMK AO2 SLP284 T01670086
Loading
Personal Weather Stations






























Interactive Weather Map New forecast layout! Learn more

10-Day Weather Forecast

Advertisements
Track Severe Weather on mobile